sensor_id;sensor_type;location;lat;lon;timestamp;pressure;altitude;pressure_sealevel;temperature;humidity
69570;BME280;56781;42.292;23.146;2022-12-29T00:00:16;96519.59;;;1.98;100.00
69570;BME280;56781;42.292;23.146;2022-12-29T00:02:44;96524.88;;;1.98;100.00
69570;BME280;56781;42.292;23.146;2022-12-29T00:05:11;96531.97;;;2.16;100.00
69570;BME280;56781;42.292;23.146;2022-12-29T00:07:38;96503.22;;;2.08;100.00
69570;BME280;56781;42.292;23.146;2022-12-29T00:10:06;96509.00;;;2.16;100.00
69570;BME280;56781;42.292;23.146;2022-12-29T00:12:33;96513.41;;;2.22;100.00
69570;BME280;56781;42.292;23.146;2022-12-29T00:15:26;96514.88;;;2.37;100.00
69570;BME280;56781;42.292;23.146;2022-12-29T00:18:11;96525.81;;;2.52;100.00
69570;BME280;56781;42.292;23.146;2022-12-29T00:20:39;96502.63;;;2.54;100.00
69570;BME280;56781;42.292;23.146;2022-12-29T00:23:24;96517.69;;;2.54;100.00
69570;BME280;56781;42.292;23.146;2022-12-29T00:26:13;96520.13;;;2.55;100.00
69570;BME280;56781;42.292;23.146;2022-12-29T00:29:00;96546.34;;;2.69;100.00
69570;BME280;56781;42.292;23.146;2022-12-29T00:31:45;96496.75;;;2.52;100.00
69570;BME280;56781;42.292;23.146;2022-12-29T00:34:31;96510.56;;;2.54;100.00
69570;BME280;56781;42.292;23.146;2022-12-29T00:37:16;96514.16;;;2.60;100.00
69570;BME280;56781;42.292;23.146;2022-12-29T00:40:04;96511.16;;;2.56;100.00
69570;BME280;56781;42.292;23.146;2022-12-29T00:42:50;96533.59;;;2.65;100.00
69570;BME280;56781;42.292;23.146;2022-12-29T00:45:35;96512.84;;;2.51;100.00
69570;BME280;56781;42.292;23.146;2022-12-29T00:48:02;96526.34;;;2.61;100.00
69570;BME280;56781;42.292;23.146;2022-12-29T00:50:29;96513.78;;;2.56;100.00
69570;BME280;56781;42.292;23.146;2022-12-29T00:52:56;96517.19;;;2.45;100.00
69570;BME280;56781;42.292;23.146;2022-12-29T00:55:24;96512.38;;;2.42;100.00
69570;BME280;56781;42.292;23.146;2022-12-29T00:57:51;96515.22;;;2.40;100.00
69570;BME280;56781;42.292;23.146;2022-12-29T01:00:18;96517.06;;;2.40;100.00
69570;BME280;56781;42.292;23.146;2022-12-29T01:02:45;96519.91;;;2.38;100.00
69570;BME280;56781;42.292;23.146;2022-12-29T01:05:12;96520.16;;;2.37;100.00
69570;BME280;56781;42.292;23.146;2022-12-29T01:07:39;96506.50;;;2.21;100.00
69570;BME280;56781;42.292;23.146;2022-12-29T01:10:07;96506.97;;;2.18;100.00
69570;BME280;56781;42.292;23.146;2022-12-29T01:12:37;96502.56;;;2.12;100.00
69570;BME280;56781;42.292;23.146;2022-12-29T01:15:09;96500.72;;;2.13;100.00
69570;BME280;56781;42.292;23.146;2022-12-29T01:17:37;96501.31;;;2.15;100.00
69570;BME280;56781;42.292;23.146;2022-12-29T01:20:04;96493.16;;;2.16;100.00
69570;BME280;56781;42.292;23.146;2022-12-29T01:22:32;96478.00;;;2.12;100.00
69570;BME280;56781;42.292;23.146;2022-12-29T01:24:59;96492.72;;;2.19;100.00
69570;BME280;56781;42.292;23.146;2022-12-29T01:27:26;96490.66;;;2.21;100.00
69570;BME280;56781;42.292;23.146;2022-12-29T01:29:54;96486.63;;;2.19;100.00
69570;BME280;56781;42.292;23.146;2022-12-29T01:32:21;96483.94;;;2.07;100.00
69570;BME280;56781;42.292;23.146;2022-12-29T01:34:48;96488.94;;;1.97;100.00
69570;BME280;56781;42.292;23.146;2022-12-29T01:37:16;96481.50;;;1.87;100.00
69570;BME280;56781;42.292;23.146;2022-12-29T01:39:43;96495.31;;;2.08;100.00
69570;BME280;56781;42.292;23.146;2022-12-29T01:42:16;96481.59;;;1.99;100.00
69570;BME280;56781;42.292;23.146;2022-12-29T01:47:44;96505.38;;;1.81;100.00
69570;BME280;56781;42.292;23.146;2022-12-29T01:53:26;96484.06;;;1.57;100.00
69570;BME280;56781;42.292;23.146;2022-12-29T01:55:58;96467.53;;;1.50;100.00
69570;BME280;56781;42.292;23.146;2022-12-29T01:58:31;96482.47;;;1.56;100.00
69570;BME280;56781;42.292;23.146;2022-12-29T02:00:59;96475.84;;;1.28;100.00
69570;BME280;56781;42.292;23.146;2022-12-29T02:03:27;96484.34;;;1.30;100.00
69570;BME280;56781;42.292;23.146;2022-12-29T02:08:31;96478.72;;;1.02;100.00
69570;BME280;56781;42.292;23.146;2022-12-29T02:10:59;96467.63;;;0.93;100.00
69570;BME280;56781;42.292;23.146;2022-12-29T02:13:28;96509.09;;;1.29;100.00
69570;BME280;56781;42.292;23.146;2022-12-29T02:16:12;96474.03;;;1.04;100.00
69570;BME280;56781;42.292;23.146;2022-12-29T02:18:51;96481.69;;;1.12;100.00
69570;BME280;56781;42.292;23.146;2022-12-29T02:30:06;96492.91;;;0.44;100.00
69570;BME280;56781;42.292;23.146;2022-12-29T02:32:45;96505.50;;;0.67;100.00
69570;BME280;56781;42.292;23.146;2022-12-29T02:35:25;96481.75;;;0.42;100.00
69570;BME280;56781;42.292;23.146;2022-12-29T02:41:46;96481.56;;;0.43;100.00
69570;BME280;56781;42.292;23.146;2022-12-29T02:46:32;96486.59;;;0.52;100.00
69570;BME280;56781;42.292;23.146;2022-12-29T02:49:11;96490.47;;;0.74;100.00
69570;BME280;56781;42.292;23.146;2022-12-29T02:54:29;96487.16;;;0.85;100.00
69570;BME280;56781;42.292;23.146;2022-12-29T02:57:28;96481.94;;;1.04;100.00
69570;BME280;56781;42.292;23.146;2022-12-29T03:00:16;96495.78;;;1.43;100.00
69570;BME280;56781;42.292;23.146;2022-12-29T03:05:42;96480.72;;;1.50;100.00
69570;BME280;56781;42.292;23.146;2022-12-29T03:08:23;96472.38;;;1.53;100.00
69570;BME280;56781;42.292;23.146;2022-12-29T03:11:06;96468.84;;;1.59;100.00
69570;BME280;56781;42.292;23.146;2022-12-29T03:17:06;96440.25;;;1.56;100.00
69570;BME280;56781;42.292;23.146;2022-12-29T03:19:41;96454.84;;;1.59;100.00
69570;BME280;56781;42.292;23.146;2022-12-29T03:22:19;96445.91;;;1.60;100.00
69570;BME280;56781;42.292;23.146;2022-12-29T03:25:01;96442.31;;;1.54;100.00
69570;BME280;56781;42.292;23.146;2022-12-29T03:27:41;96453.00;;;1.77;100.00
69570;BME280;56781;42.292;23.146;2022-12-29T03:30:11;96476.91;;;1.83;100.00
69570;BME280;56781;42.292;23.146;2022-12-29T03:32:46;96446.56;;;1.55;100.00
69570;BME280;56781;42.292;23.146;2022-12-29T03:35:17;96435.88;;;1.50;100.00
69570;BME280;56781;42.292;23.146;2022-12-29T03:37:59;96441.72;;;1.52;100.00
69570;BME280;56781;42.292;23.146;2022-12-29T03:40:28;96433.59;;;1.53;100.00
69570;BME280;56781;42.292;23.146;2022-12-29T03:42:58;96450.97;;;1.61;100.00
69570;BME280;56781;42.292;23.146;2022-12-29T03:45:25;96453.16;;;1.64;100.00
69570;BME280;56781;42.292;23.146;2022-12-29T03:47:53;96428.81;;;1.44;100.00
69570;BME280;56781;42.292;23.146;2022-12-29T03:50:20;96475.59;;;1.73;100.00
69570;BME280;56781;42.292;23.146;2022-12-29T03:52:47;96457.13;;;1.55;100.00
69570;BME280;56781;42.292;23.146;2022-12-29T03:55:15;96455.94;;;1.51;100.00
69570;BME280;56781;42.292;23.146;2022-12-29T03:57:44;96474.28;;;1.64;100.00
69570;BME280;56781;42.292;23.146;2022-12-29T04:00:11;96457.03;;;1.62;100.00
69570;BME280;56781;42.292;23.146;2022-12-29T04:02:38;96457.63;;;1.64;100.00
69570;BME280;56781;42.292;23.146;2022-12-29T04:05:06;96483.28;;;1.75;100.00
69570;BME280;56781;42.292;23.146;2022-12-29T04:07:33;96464.81;;;1.57;100.00
69570;BME280;56781;42.292;23.146;2022-12-29T04:10:00;96458.41;;;1.46;100.00
69570;BME280;56781;42.292;23.146;2022-12-29T04:12:27;96506.00;;;1.76;100.00
69570;BME280;56781;42.292;23.146;2022-12-29T04:14:54;96471.78;;;1.51;100.00
69570;BME280;56781;42.292;23.146;2022-12-29T04:17:21;96469.22;;;1.44;100.00
69570;BME280;56781;42.292;23.146;2022-12-29T04:19:49;96480.72;;;1.50;100.00
69570;BME280;56781;42.292;23.146;2022-12-29T04:22:16;96479.31;;;1.47;100.00
69570;BME280;56781;42.292;23.146;2022-12-29T04:24:43;96479.75;;;1.44;100.00
69570;BME280;56781;42.292;23.146;2022-12-29T04:27:10;96481.72;;;1.49;100.00
69570;BME280;56781;42.292;23.146;2022-12-29T04:29:38;96497.28;;;1.57;100.00
69570;BME280;56781;42.292;23.146;2022-12-29T04:32:05;96482.63;;;1.61;100.00
69570;BME280;56781;42.292;23.146;2022-12-29T04:34:32;96492.13;;;1.44;100.00
69570;BME280;56781;42.292;23.146;2022-12-29T04:37:00;96520.88;;;1.52;100.00
69570;BME280;56781;42.292;23.146;2022-12-29T04:39:27;96503.81;;;1.29;100.00
69570;BME280;56781;42.292;23.146;2022-12-29T04:41:54;96499.06;;;1.20;100.00
69570;BME280;56781;42.292;23.146;2022-12-29T04:44:21;96499.25;;;0.93;100.00
69570;BME280;56781;42.292;23.146;2022-12-29T04:46:48;96523.44;;;0.83;100.00
69570;BME280;56781;42.292;23.146;2022-12-29T04:49:15;96479.69;;;0.51;100.00
69570;BME280;56781;42.292;23.146;2022-12-29T04:51:43;96499.81;;;0.70;100.00
69570;BME280;56781;42.292;23.146;2022-12-29T04:54:10;96499.28;;;0.61;100.00
69570;BME280;56781;42.292;23.146;2022-12-29T04:56:38;96496.16;;;0.39;100.00
69570;BME280;56781;42.292;23.146;2022-12-29T04:59:05;96496.59;;;0.30;100.00
69570;BME280;56781;42.292;23.146;2022-12-29T05:01:33;96542.75;;;0.77;100.00
69570;BME280;56781;42.292;23.146;2022-12-29T05:04:00;96494.06;;;0.48;100.00
69570;BME280;56781;42.292;23.146;2022-12-29T05:06:27;96498.00;;;0.39;100.00
69570;BME280;56781;42.292;23.146;2022-12-29T05:08:54;96511.28;;;0.51;100.00
69570;BME280;56781;42.292;23.146;2022-12-29T05:11:22;96520.56;;;0.60;100.00
69570;BME280;56781;42.292;23.146;2022-12-29T05:13:49;96505.34;;;0.62;100.00
69570;BME280;56781;42.292;23.146;2022-12-29T05:16:16;96551.94;;;1.00;100.00
69570;BME280;56781;42.292;23.146;2022-12-29T05:18:44;96539.88;;;0.85;100.00
69570;BME280;56781;42.292;23.146;2022-12-29T05:21:11;96543.75;;;1.08;100.00
69570;BME280;56781;42.292;23.146;2022-12-29T05:23:38;96550.56;;;1.22;100.00
69570;BME280;56781;42.292;23.146;2022-12-29T05:26:05;96522.22;;;1.11;100.00
69570;BME280;56781;42.292;23.146;2022-12-29T05:28:33;96563.06;;;1.33;100.00
69570;BME280;56781;42.292;23.146;2022-12-29T05:31:00;96557.34;;;1.37;100.00
69570;BME280;56781;42.292;23.146;2022-12-29T05:33:27;96524.59;;;1.19;100.00
69570;BME280;56781;42.292;23.146;2022-12-29T05:35:54;96528.59;;;1.28;100.00
69570;BME280;56781;42.292;23.146;2022-12-29T05:38:21;96530.91;;;1.18;100.00
69570;BME280;56781;42.292;23.146;2022-12-29T05:40:49;96516.16;;;1.10;100.00
69570;BME280;56781;42.292;23.146;2022-12-29T05:43:16;96539.19;;;1.22;100.00
69570;BME280;56781;42.292;23.146;2022-12-29T05:45:44;96531.53;;;1.14;100.00
69570;BME280;56781;42.292;23.146;2022-12-29T05:48:11;96552.19;;;1.17;100.00
69570;BME280;56781;42.292;23.146;2022-12-29T05:50:38;96528.38;;;1.05;100.00
69570;BME280;56781;42.292;23.146;2022-12-29T05:53:05;96513.63;;;0.97;100.00
69570;BME280;56781;42.292;23.146;2022-12-29T05:55:33;96524.94;;;1.04;100.00
69570;BME280;56781;42.292;23.146;2022-12-29T05:58:00;96534.78;;;1.16;100.00
69570;BME280;56781;42.292;23.146;2022-12-29T06:00:27;96558.69;;;1.46;100.00
69570;BME280;56781;42.292;23.146;2022-12-29T06:02:54;96529.06;;;1.19;100.00
69570;BME280;56781;42.292;23.146;2022-12-29T06:05:22;96541.16;;;1.33;100.00
69570;BME280;56781;42.292;23.146;2022-12-29T06:07:49;96547.53;;;1.44;100.00
69570;BME280;56781;42.292;23.146;2022-12-29T06:10:16;96533.50;;;1.50;100.00
69570;BME280;56781;42.292;23.146;2022-12-29T06:12:43;96548.28;;;1.51;100.00
69570;BME280;56781;42.292;23.146;2022-12-29T06:15:10;96575.47;;;1.76;100.00
69570;BME280;56781;42.292;23.146;2022-12-29T06:17:38;96534.38;;;1.62;100.00
69570;BME280;56781;42.292;23.146;2022-12-29T06:20:06;96542.16;;;1.75;100.00
69570;BME280;56781;42.292;23.146;2022-12-29T06:22:33;96538.72;;;1.75;100.00
69570;BME280;56781;42.292;23.146;2022-12-29T06:25:01;96554.34;;;1.95;100.00
69570;BME280;56781;42.292;23.146;2022-12-29T06:27:31;96553.63;;;2.06;100.00
69570;BME280;56781;42.292;23.146;2022-12-29T06:29:59;96549.97;;;2.07;100.00
69570;BME280;56781;42.292;23.146;2022-12-29T06:32:26;96538.88;;;2.17;100.00
69570;BME280;56781;42.292;23.146;2022-12-29T06:34:53;96551.56;;;2.27;100.00
69570;BME280;56781;42.292;23.146;2022-12-29T06:37:20;96555.34;;;2.49;100.00
69570;BME280;56781;42.292;23.146;2022-12-29T06:39:47;96566.94;;;2.66;100.00
69570;BME280;56781;42.292;23.146;2022-12-29T06:42:15;96561.66;;;2.66;100.00
69570;BME280;56781;42.292;23.146;2022-12-29T06:44:42;96553.41;;;2.75;100.00
69570;BME280;56781;42.292;23.146;2022-12-29T06:47:10;96555.88;;;2.88;100.00
69570;BME280;56781;42.292;23.146;2022-12-29T06:49:37;96548.16;;;2.86;100.00
69570;BME280;56781;42.292;23.146;2022-12-29T06:52:04;96542.00;;;3.04;99.45
69570;BME280;56781;42.292;23.146;2022-12-29T06:54:38;96567.59;;;3.34;98.81
69570;BME280;56781;42.292;23.146;2022-12-29T06:57:05;96553.00;;;3.67;97.21
69570;BME280;56781;42.292;23.146;2022-12-29T06:59:32;96556.06;;;4.22;93.11
69570;BME280;56781;42.292;23.146;2022-12-29T07:02:00;96580.41;;;4.88;91.10
69570;BME280;56781;42.292;23.146;2022-12-29T07:04:29;96592.38;;;5.48;87.77
69570;BME280;56781;42.292;23.146;2022-12-29T07:06:56;96555.50;;;5.52;85.33
69570;BME280;56781;42.292;23.146;2022-12-29T07:09:23;96582.94;;;5.74;85.66
69570;BME280;56781;42.292;23.146;2022-12-29T07:11:50;96558.28;;;5.45;85.40
69570;BME280;56781;42.292;23.146;2022-12-29T07:14:17;96574.56;;;5.32;85.88
69570;BME280;56781;42.292;23.146;2022-12-29T07:16:44;96599.91;;;5.40;86.75
69570;BME280;56781;42.292;23.146;2022-12-29T07:19:12;96594.75;;;5.50;86.86
69570;BME280;56781;42.292;23.146;2022-12-29T07:21:39;96559.97;;;5.34;86.53
69570;BME280;56781;42.292;23.146;2022-12-29T07:24:12;96553.88;;;5.51;86.22
69570;BME280;56781;42.292;23.146;2022-12-29T07:26:39;96591.78;;;5.63;87.02
69570;BME280;56781;42.292;23.146;2022-12-29T07:29:06;96553.56;;;5.47;85.87
69570;BME280;56781;42.292;23.146;2022-12-29T07:31:33;96566.09;;;5.69;86.19
69570;BME280;56781;42.292;23.146;2022-12-29T07:34:00;96595.09;;;6.04;84.89
69570;BME280;56781;42.292;23.146;2022-12-29T07:36:27;96559.31;;;5.78;85.06
69570;BME280;56781;42.292;23.146;2022-12-29T07:39:00;96554.75;;;5.73;85.03
69570;BME280;56781;42.292;23.146;2022-12-29T07:41:28;96584.94;;;6.01;85.20
69570;BME280;56781;42.292;23.146;2022-12-29T07:43:55;96568.34;;;6.11;84.04
69570;BME280;56781;42.292;23.146;2022-12-29T07:46:22;96558.31;;;5.62;84.83
69570;BME280;56781;42.292;23.146;2022-12-29T07:49:09;96584.94;;;6.01;85.24
69570;BME280;56781;42.292;23.146;2022-12-29T07:51:36;96550.84;;;6.37;83.81
69570;BME280;56781;42.292;23.146;2022-12-29T07:54:04;96549.63;;;6.94;80.93
69570;BME280;56781;42.292;23.146;2022-12-29T07:56:31;96545.78;;;7.71;77.98
69570;BME280;56781;42.292;23.146;2022-12-29T07:58:58;96586.53;;;8.09;76.18
69570;BME280;56781;42.292;23.146;2022-12-29T08:01:25;96550.22;;;8.45;74.49
69570;BME280;56781;42.292;23.146;2022-12-29T08:03:52;96549.09;;;9.24;71.68
69570;BME280;56781;42.292;23.146;2022-12-29T08:06:23;96569.94;;;10.30;68.94
69570;BME280;56781;42.292;23.146;2022-12-29T08:08:50;96573.38;;;11.05;63.89
69570;BME280;56781;42.292;23.146;2022-12-29T08:11:17;96578.28;;;11.38;62.53
69570;BME280;56781;42.292;23.146;2022-12-29T08:13:44;96541.69;;;11.13;62.06
69570;BME280;56781;42.292;23.146;2022-12-29T08:16:11;96549.34;;;11.69;61.36
69570;BME280;56781;42.292;23.146;2022-12-29T08:18:38;96543.56;;;12.15;59.23
69570;BME280;56781;42.292;23.146;2022-12-29T08:21:06;96549.38;;;12.27;57.84
69570;BME280;56781;42.292;23.146;2022-12-29T08:23:33;96559.06;;;12.71;57.18
69570;BME280;56781;42.292;23.146;2022-12-29T08:26:01;96536.06;;;12.84;55.02
69570;BME280;56781;42.292;23.146;2022-12-29T08:28:29;96580.91;;;13.07;56.86
69570;BME280;56781;42.292;23.146;2022-12-29T08:31:00;96542.50;;;12.83;56.01
69570;BME280;56781;42.292;23.146;2022-12-29T08:33:29;96560.34;;;12.98;55.63
69570;BME280;56781;42.292;23.146;2022-12-29T08:36:04;96581.75;;;12.60;56.95
69570;BME280;56781;42.292;23.146;2022-12-29T08:38:32;96572.91;;;13.02;56.65
69570;BME280;56781;42.292;23.146;2022-12-29T08:40:59;96553.16;;;12.69;56.22
69570;BME280;56781;42.292;23.146;2022-12-29T08:43:29;96522.06;;;13.06;54.67
69570;BME280;56781;42.292;23.146;2022-12-29T08:46:00;96578.69;;;12.18;57.48
69570;BME280;56781;42.292;23.146;2022-12-29T08:48:27;96540.88;;;11.57;60.97
69570;BME280;56781;42.292;23.146;2022-12-29T08:50:54;96575.72;;;11.12;61.29
69570;BME280;56781;42.292;23.146;2022-12-29T08:53:21;96578.44;;;10.47;64.11
69570;BME280;56781;42.292;23.146;2022-12-29T08:55:58;96534.13;;;9.08;68.38
69570;BME280;56781;42.292;23.146;2022-12-29T08:58:31;96545.06;;;8.96;70.42
69570;BME280;56781;42.292;23.146;2022-12-29T09:00:59;96565.56;;;8.80;71.22
69570;BME280;56781;42.292;23.146;2022-12-29T09:03:26;96524.75;;;8.85;71.07
69570;BME280;56781;42.292;23.146;2022-12-29T09:06:15;96562.75;;;9.23;70.43
69570;BME280;56781;42.292;23.146;2022-12-29T09:08:44;96524.75;;;8.85;71.01
69570;BME280;56781;42.292;23.146;2022-12-29T09:11:16;96530.09;;;8.85;72.46
69570;BME280;56781;42.292;23.146;2022-12-29T09:13:44;96552.28;;;9.06;72.68
69570;BME280;56781;42.292;23.146;2022-12-29T09:16:12;96508.47;;;8.92;72.11
69570;BME280;56781;42.292;23.146;2022-12-29T09:18:39;96528.00;;;9.18;73.30
69570;BME280;56781;42.292;23.146;2022-12-29T09:21:07;96537.66;;;9.39;72.75
69570;BME280;56781;42.292;23.146;2022-12-29T09:23:34;96494.06;;;9.23;73.42
69570;BME280;56781;42.292;23.146;2022-12-29T09:26:02;96511.97;;;9.48;72.79
69570;BME280;56781;42.292;23.146;2022-12-29T09:28:30;96526.41;;;9.58;72.61
69570;BME280;56781;42.292;23.146;2022-12-29T09:30:58;96531.44;;;9.85;71.58
69570;BME280;56781;42.292;23.146;2022-12-29T09:33:26;96536.25;;;9.88;71.93
69570;BME280;56781;42.292;23.146;2022-12-29T09:35:57;96543.47;;;9.87;71.68
69570;BME280;56781;42.292;23.146;2022-12-29T09:38:25;96525.59;;;9.72;71.23
69570;BME280;56781;42.292;23.146;2022-12-29T09:40:55;96512.47;;;9.91;71.26
69570;BME280;56781;42.292;23.146;2022-12-29T09:43:54;96543.47;;;10.08;70.63
69570;BME280;56781;42.292;23.146;2022-12-29T09:46:32;96505.47;;;10.01;70.20
69570;BME280;56781;42.292;23.146;2022-12-29T09:49:26;96540.81;;;9.97;70.83
69570;BME280;56781;42.292;23.146;2022-12-29T09:52:03;96511.69;;;9.75;71.73
69570;BME280;56781;42.292;23.146;2022-12-29T09:54:50;96506.81;;;9.93;71.37
69570;BME280;56781;42.292;23.146;2022-12-29T10:00:16;96489.97;;;10.03;70.61
69570;BME280;56781;42.292;23.146;2022-12-29T10:03:24;96503.31;;;10.13;70.64
69570;BME280;56781;42.292;23.146;2022-12-29T10:06:10;96508.06;;;10.36;70.62
69570;BME280;56781;42.292;23.146;2022-12-29T10:08:47;96491.50;;;10.34;70.29
69570;BME280;56781;42.292;23.146;2022-12-29T10:14:36;96471.50;;;10.01;69.76
69570;BME280;56781;42.292;23.146;2022-12-29T10:20:05;96488.59;;;10.80;69.70
69570;BME280;56781;42.292;23.146;2022-12-29T10:25:44;96457.72;;;10.88;67.77
69570;BME280;56781;42.292;23.146;2022-12-29T10:28:23;96459.94;;;10.81;69.26
69570;BME280;56781;42.292;23.146;2022-12-29T10:30:53;96449.91;;;10.97;68.22
69570;BME280;56781;42.292;23.146;2022-12-29T10:33:26;96442.16;;;10.95;67.02
69570;BME280;56781;42.292;23.146;2022-12-29T10:35:57;96445.75;;;11.15;66.87
69570;BME280;56781;42.292;23.146;2022-12-29T10:38:42;96480.78;;;11.23;66.85
69570;BME280;56781;42.292;23.146;2022-12-29T10:43:53;96468.88;;;11.05;67.52
69570;BME280;56781;42.292;23.146;2022-12-29T10:46:30;96431.38;;;10.61;67.74
69570;BME280;56781;42.292;23.146;2022-12-29T10:49:00;96426.63;;;10.92;67.04
69570;BME280;56781;42.292;23.146;2022-12-29T10:51:32;96461.03;;;10.75;69.43
69570;BME280;56781;42.292;23.146;2022-12-29T10:54:26;96423.81;;;10.24;70.32
69570;BME280;56781;42.292;23.146;2022-12-29T10:57:00;96441.47;;;10.30;70.38
69570;BME280;56781;42.292;23.146;2022-12-29T10:59:35;96456.63;;;10.94;68.88
69570;BME280;56781;42.292;23.146;2022-12-29T11:04:51;96439.47;;;11.29;66.26
69570;BME280;56781;42.292;23.146;2022-12-29T11:07:22;96446.19;;;11.56;65.81
69570;BME280;56781;42.292;23.146;2022-12-29T11:09:53;96415.41;;;11.53;65.88
69570;BME280;56781;42.292;23.146;2022-12-29T11:17:50;96422.38;;;11.79;64.28
69570;BME280;56781;42.292;23.146;2022-12-29T11:22:53;96396.91;;;11.76;66.68
69570;BME280;56781;42.292;23.146;2022-12-29T11:25:20;96407.31;;;12.07;65.08
69570;BME280;56781;42.292;23.146;2022-12-29T11:28:12;96392.78;;;11.89;65.39
69570;BME280;56781;42.292;23.146;2022-12-29T11:30:41;96393.19;;;11.72;66.33
69570;BME280;56781;42.292;23.146;2022-12-29T11:33:09;96383.94;;;11.83;65.56
69570;BME280;56781;42.292;23.146;2022-12-29T11:35:41;96377.28;;;12.05;65.46
69570;BME280;56781;42.292;23.146;2022-12-29T11:38:20;96398.38;;;12.35;64.16
69570;BME280;56781;42.292;23.146;2022-12-29T11:40:48;96373.03;;;12.23;65.56
69570;BME280;56781;42.292;23.146;2022-12-29T11:43:43;96377.16;;;12.53;63.80
69570;BME280;56781;42.292;23.146;2022-12-29T11:46:20;96371.06;;;12.28;64.32
69570;BME280;56781;42.292;23.146;2022-12-29T11:48:51;96347.56;;;12.20;64.38
69570;BME280;56781;42.292;23.146;2022-12-29T11:51:27;96371.16;;;12.42;63.91
69570;BME280;56781;42.292;23.146;2022-12-29T11:53:58;96364.13;;;12.27;63.48
69570;BME280;56781;42.292;23.146;2022-12-29T11:56:41;96390.25;;;12.40;64.25
69570;BME280;56781;42.292;23.146;2022-12-29T12:01:54;96368.25;;;12.57;63.63
69570;BME280;56781;42.292;23.146;2022-12-29T12:04:26;96374.34;;;12.63;63.58
69570;BME280;56781;42.292;23.146;2022-12-29T12:06:58;96358.88;;;12.55;62.89
69570;BME280;56781;42.292;23.146;2022-12-29T12:09:42;96355.75;;;12.48;63.05
69570;BME280;56781;42.292;23.146;2022-12-29T12:12:22;96346.25;;;12.36;63.47
69570;BME280;56781;42.292;23.146;2022-12-29T12:14:56;96320.63;;;12.44;62.48
69570;BME280;56781;42.292;23.146;2022-12-29T12:19:59;96331.81;;;12.51;61.88
69570;BME280;56781;42.292;23.146;2022-12-29T12:22:32;96330.94;;;12.56;61.89
69570;BME280;56781;42.292;23.146;2022-12-29T12:25:33;96343.03;;;12.72;61.50
69570;BME280;56781;42.292;23.146;2022-12-29T12:28:12;96357.56;;;12.71;63.87
69570;BME280;56781;42.292;23.146;2022-12-29T12:30:45;96358.56;;;12.56;62.32
69570;BME280;56781;42.292;23.146;2022-12-29T12:33:28;96324.56;;;12.33;62.13
69570;BME280;56781;42.292;23.146;2022-12-29T12:41:46;96326.66;;;12.17;62.50
69570;BME280;56781;42.292;23.146;2022-12-29T12:44:25;96331.88;;;11.89;63.29
69570;BME280;56781;42.292;23.146;2022-12-29T12:49:55;96320.72;;;11.77;63.83
69570;BME280;56781;42.292;23.146;2022-12-29T13:00:51;96355.72;;;11.91;63.54
69570;BME280;56781;42.292;23.146;2022-12-29T13:03:38;96315.19;;;11.44;64.14
69570;BME280;56781;42.292;23.146;2022-12-29T13:06:33;96312.34;;;11.36;64.97
69570;BME280;56781;42.292;23.146;2022-12-29T13:12:03;96336.19;;;11.13;65.98
69570;BME280;56781;42.292;23.146;2022-12-29T13:18:02;96338.41;;;11.01;66.91
69570;BME280;56781;42.292;23.146;2022-12-29T13:28:43;96340.38;;;10.90;67.27
69570;BME280;56781;42.292;23.146;2022-12-29T13:31:32;96365.34;;;11.15;67.33
69570;BME280;56781;42.292;23.146;2022-12-29T13:34:14;96360.56;;;11.12;67.56
69570;BME280;56781;42.292;23.146;2022-12-29T13:36:47;96328.53;;;10.96;66.63
69570;BME280;56781;42.292;23.146;2022-12-29T13:39:23;96333.59;;;11.03;67.12
69570;BME280;56781;42.292;23.146;2022-12-29T13:41:56;96356.09;;;11.31;66.54
69570;BME280;56781;42.292;23.146;2022-12-29T13:47:39;96331.34;;;11.10;66.04
69570;BME280;56781;42.292;23.146;2022-12-29T13:50:21;96331.22;;;10.96;66.96
69570;BME280;56781;42.292;23.146;2022-12-29T13:52:55;96353.63;;;11.11;66.15
69570;BME280;56781;42.292;23.146;2022-12-29T13:55:58;96352.03;;;11.04;66.79
69570;BME280;56781;42.292;23.146;2022-12-29T13:58:57;96334.47;;;10.93;66.50
69570;BME280;56781;42.292;23.146;2022-12-29T14:01:29;96340.63;;;10.94;66.55
69570;BME280;56781;42.292;23.146;2022-12-29T14:04:00;96334.91;;;10.71;67.38
69570;BME280;56781;42.292;23.146;2022-12-29T14:06:34;96323.63;;;10.74;67.02
69570;BME280;56781;42.292;23.146;2022-12-29T14:09:46;96341.53;;;10.84;67.60
69570;BME280;56781;42.292;23.146;2022-12-29T14:12:35;96340.50;;;10.75;68.00
69570;BME280;56781;42.292;23.146;2022-12-29T14:15:16;96365.09;;;10.82;67.71
69570;BME280;56781;42.292;23.146;2022-12-29T14:18:05;96353.47;;;10.62;68.97
69570;BME280;56781;42.292;23.146;2022-12-29T14:20:38;96320.72;;;10.36;69.13
69570;BME280;56781;42.292;23.146;2022-12-29T14:26:12;96350.72;;;10.33;69.60
69570;BME280;56781;42.292;23.146;2022-12-29T14:28:42;96331.78;;;10.14;69.57
69570;BME280;56781;42.292;23.146;2022-12-29T14:36:37;96339.66;;;9.95;69.24
69570;BME280;56781;42.292;23.146;2022-12-29T14:39:30;96372.78;;;10.10;69.90
69570;BME280;56781;42.292;23.146;2022-12-29T14:44:53;96350.75;;;9.68;71.27
69570;BME280;56781;42.292;23.146;2022-12-29T14:55:36;96338.59;;;9.21;72.77
69570;BME280;56781;42.292;23.146;2022-12-29T14:58:12;96343.41;;;9.19;72.71
69570;BME280;56781;42.292;23.146;2022-12-29T15:00:44;96344.72;;;9.27;72.28
69570;BME280;56781;42.292;23.146;2022-12-29T15:06:06;96378.59;;;9.57;71.63
69570;BME280;56781;42.292;23.146;2022-12-29T15:09:06;96379.44;;;9.47;72.42
69570;BME280;56781;42.292;23.146;2022-12-29T15:14:28;96345.81;;;9.10;72.79
69570;BME280;56781;42.292;23.146;2022-12-29T15:16:56;96367.97;;;9.31;72.95
69570;BME280;56781;42.292;23.146;2022-12-29T15:19:26;96343.94;;;9.26;72.02
69570;BME280;56781;42.292;23.146;2022-12-29T15:21:54;96373.56;;;9.40;71.47